地図

経路データ

SID SEASON NUMBER BASIN SUBBASIN NAME ISO_TIME NATURE LAT LON WMO_WIND WMO_PRES WMO_AGENCY TRACK_TYPE DIST2LAND LANDFALL IFLAG USA_AGENCY USA_ATCF_ID USA_LAT USA_LON USA_RECORD USA_STATUS USA_WIND USA_PRES USA_SSHS USA_R34_NE USA_R34_SE USA_R34_SW USA_R34_NW USA_R50_NE USA_R50_SE USA_R50_SW USA_R50_NW USA_R64_NE USA_R64_SE USA_R64_SW USA_R64_NW USA_POCI USA_ROCI USA_RMW USA_EYE TOKYO_LAT TOKYO_LON TOKYO_GRADE TOKYO_WIND TOKYO_PRES TOKYO_R50_DIR TOKYO_R50_LONG TOKYO_R50_SHORT TOKYO_R30_DIR TOKYO_R30_LONG TOKYO_R30_SHORT TOKYO_LAND CMA_LAT CMA_LON CMA_CAT CMA_WIND CMA_PRES HKO_LAT HKO_LON HKO_CAT HKO_WIND HKO_PRES NEWDELHI_LAT NEWDELHI_LON NEWDELHI_GRADE NEWDELHI_WIND NEWDELHI_PRES NEWDELHI_CI NEWDELHI_DP NEWDELHI_POCI REUNION_LAT REUNION_LON REUNION_TYPE REUNION_WIND REUNION_PRES REUNION_TNUM REUNION_CI REUNION_RMW REUNION_R34_NE REUNION_R34_SE REUNION_R34_SW REUNION_R34_NW REUNION_R50_NE REUNION_R50_SE REUNION_R50_SW REUNION_R50_NW REUNION_R64_NE REUNION_R64_SE REUNION_R64_SW REUNION_R64_NW BOM_LAT BOM_LON BOM_TYPE BOM_WIND BOM_PRES BOM_TNUM BOM_CI BOM_RMW BOM_R34_NE BOM_R34_SE BOM_R34_SW BOM_R34_NW BOM_R50_NE BOM_R50_SE BOM_R50_SW BOM_R50_NW BOM_R64_NE BOM_R64_SE BOM_R64_SW BOM_R64_NW BOM_ROCI BOM_POCI BOM_EYE BOM_POS_METHOD BOM_PRES_METHOD NADI_LAT NADI_LON NADI_CAT NADI_WIND NADI_PRES WELLINGTON_LAT WELLINGTON_LON WELLINGTON_WIND WELLINGTON_PRES DS824_LAT DS824_LON DS824_STAGE DS824_WIND DS824_PRES TD9636_LAT TD9636_LON TD9636_STAGE TD9636_WIND TD9636_PRES TD9635_LAT TD9635_LON TD9635_WIND TD9635_PRES TD9635_ROCI NEUMANN_LAT NEUMANN_LON NEUMANN_CLASS NEUMANN_WIND NEUMANN_PRES MLC_LAT MLC_LON MLC_CLASS MLC_WIND MLC_PRES USA_GUST BOM_GUST BOM_GUST_PER REUNION_GUST REUNION_GUST_PER USA_SEAHGT USA_SEARAD_NE USA_SEARAD_SE USA_SEARAD_SW USA_SEARAD_NW STORM_SPEED STORM_DIR
1908208N19123 1908 24 WP MM NOT_NAMED 1908-07-25 16:00:00 NR 19.1000 123.200 main 122 98 __________O___ -1 19.1000 123.200 4 15 279
1908208N19123 1908 24 WP MM NOT_NAMED 1908-07-25 18:00:00 NR 19.1817 122.666 main 98 89 __________P___ -1 19.1817 122.666 4 15 279
1908208N19123 1908 24 WP MM NOT_NAMED 1908-07-25 21:00:00 NR 19.3032 121.883 main 102 91 __________P___ -1 19.3032 121.883 4 15 280
1908208N19123 1908 24 WP MM NOT_NAMED 1908-07-26 00:00:00 NR 19.4265 121.149 main 91 90 __________P___ -1 19.4265 121.149 4 13 281
1908208N19123 1908 24 WP MM NOT_NAMED 1908-07-26 03:00:00 NR 19.5552 120.495 main 116 116 __________P___ -1 19.5552 120.495 4 12 282
1908208N19123 1908 24 WP MM NOT_NAMED 1908-07-26 04:00:00 NR 19.6000 120.300 main 123 123 __________O___ -1 19.6000 120.300 4 11 285
1908208N19123 1908 24 WP MM NOT_NAMED 1908-07-26 06:00:00 NR 19.6931 119.948 main 155 155 __________P___ -1 19.6931 119.948 4 10 288
1908208N19123 1908 24 WP MM NOT_NAMED 1908-07-26 09:00:00 NR 19.8400 119.496 main 191 191 __________P___ -1 19.8400 119.496 4 9 291
1908208N19123 1908 24 WP MM NOT_NAMED 1908-07-26 12:00:00 NR 19.9929 119.101 main 237 237 __________P___ -1 19.9929 119.101 4 8 293
1908208N19123 1908 24 WP MM NOT_NAMED 1908-07-26 15:00:00 NR 20.1483 118.727 main 275 281 __________P___ -1 20.1483 118.727 4 8 294
1908208N19123 1908 24 WP MM NOT_NAMED 1908-07-26 16:00:00 NR 20.2000 118.600 main 289 289 __________O___ -1 20.2000 118.600 4 8 290
1908208N19123 1908 24 WP MM NOT_NAMED 1908-07-26 18:00:00 NR 20.2891 118.324 main 306 306 __________P___ -1 20.2891 118.324 4 8 289
1908208N19123 1908 24 WP MM NOT_NAMED 1908-07-26 21:00:00 NR 20.4228 117.911 main 314 277 __________P___ -1 20.4228 117.911 4 8 290
1908208N19123 1908 24 WP MM NOT_NAMED 1908-07-27 00:00:00 NR 20.5677 117.489 main 277 253 __________P___ -1 20.5677 117.489 4 9 291
1908208N19123 1908 24 WP MM NOT_NAMED 1908-07-27 03:00:00 NR 20.7363 117.051 main 253 238 __________P___ -1 20.7363 117.051 4 9 293
1908208N19123 1908 24 WP MM NOT_NAMED 1908-07-27 04:00:00 NR 20.8000 116.900 main 238 217 __________O___ -1 20.8000 116.900 4 9 294
1908208N19123 1908 24 WP MM NOT_NAMED 1908-07-27 06:00:00 NR 20.9303 116.596 main 217 170 __________P___ -1 20.9303 116.596 4 10 296
1908208N19123 1908 24 WP MM NOT_NAMED 1908-07-27 09:00:00 NR 21.1509 116.122 main 170 142 __________P___ -1 21.1509 116.122 4 10 298
1908208N19123 1908 24 WP MM NOT_NAMED 1908-07-27 12:00:00 NR 21.4046 115.621 main 142 91 __________P___ -1 21.4046 115.621 4 11 299
1908208N19123 1908 24 WP MM NOT_NAMED 1908-07-27 15:00:00 NR 21.6946 115.087 main 91 78 __________P___ -1 21.6946 115.087 4 12 301
1908208N19123 1908 24 WP MM NOT_NAMED 1908-07-27 16:00:00 NR 21.8000 114.900 main 78 39 __________O___ -1 21.8000 114.900 4 13 302
1908208N19123 1908 24 WP MM NOT_NAMED 1908-07-27 18:00:00 NR 22.0237 114.514 main 39 0 __________P___ -1 22.0237 114.514 4 13 302
1908208N19123 1908 24 WP MM NOT_NAMED 1908-07-27 21:00:00 NR 22.3861 113.905 main 0 0 __________P___ -1 22.3861 113.905 4 14 303
1908208N19123 1908 24 WP MM NOT_NAMED 1908-07-28 00:00:00 NR 22.7709 113.271 main 0 0 __________P___ -1 22.7709 113.271 4 14 303
1908208N19123 1908 24 WP MM NOT_NAMED 1908-07-28 03:00:00 NR 23.1672 112.619 main 0 0 __________P___ -1 23.1672 112.619 4 14 303
1908208N19123 1908 24 WP MM NOT_NAMED 1908-07-28 04:00:00 NR 23.3000 112.400 main 0 __________O___ -1 23.3000 112.400 4 15 303

デジタル台風データ・検索

IBTrACS Databaseについて

本データベースは、米国NOAAが公開する1842年以降の世界の熱帯低気圧のベストトラックデータアーカイブInternational Best Track Archive for Climate Stewardship (IBTrACS)を、ウェブで閲覧しやすい形式に変換したものです。

最終更新日:2021-11-26